createdAt,value
2022-12-13T00:01:55.516Z,17.60
2022-12-13T00:04:24.841Z,17.20
2022-12-13T00:06:54.293Z,16.30
2022-12-13T00:09:23.503Z,16.10
2022-12-13T00:11:52.536Z,19.20
2022-12-13T00:14:21.101Z,14.10
2022-12-13T00:16:50.261Z,22.60
2022-12-13T00:19:18.839Z,20.90
2022-12-13T00:21:46.987Z,19.60
2022-12-13T00:24:15.184Z,17.60
2022-12-13T00:26:43.444Z,14.20
2022-12-13T00:29:12.417Z,13.80
2022-12-13T00:34:29.637Z,17.20
2022-12-13T00:37:01.297Z,20.40
2022-12-13T00:39:29.584Z,16.60
2022-12-13T00:41:58.298Z,19.20
2022-12-13T00:44:26.902Z,21.40
2022-12-13T00:46:55.044Z,20.30
2022-12-13T00:49:23.339Z,16.80
2022-12-13T00:51:51.476Z,21.60
2022-12-13T00:54:19.530Z,21.00
2022-12-13T00:56:48.030Z,23.30
2022-12-13T00:59:16.007Z,17.10
2022-12-13T01:01:45.113Z,24.80
2022-12-13T01:04:13.451Z,22.00
2022-12-13T01:06:44.940Z,22.90
2022-12-13T01:09:21.723Z,21.00
2022-12-13T01:11:50.744Z,26.60
2022-12-13T01:14:19.076Z,24.10
2022-12-13T01:16:47.370Z,24.80
2022-12-13T01:19:17.207Z,22.50
2022-12-13T01:21:45.474Z,27.30
2022-12-13T01:24:14.021Z,21.90
2022-12-13T01:26:42.227Z,26.90
2022-12-13T01:29:11.715Z,25.60
2022-12-13T01:31:41.919Z,26.50
2022-12-13T01:34:15.210Z,26.70
2022-12-13T01:36:45.468Z,21.90
2022-12-13T01:39:15.861Z,24.40
2022-12-13T01:41:46.748Z,18.20
2022-12-13T01:44:52.212Z,21.50
2022-12-13T01:47:35.159Z,19.20
2022-12-13T01:50:09.828Z,20.10
2022-12-13T01:52:38.785Z,18.90
2022-12-13T01:55:08.637Z,18.70
2022-12-13T01:57:45.487Z,20.60
2022-12-13T02:00:16.037Z,19.40
2022-12-13T02:02:45.026Z,21.20
2022-12-13T02:05:25.650Z,19.50
2022-12-13T02:07:54.053Z,22.90
2022-12-13T02:10:22.163Z,24.30
2022-12-13T02:12:50.704Z,20.60
2022-12-13T02:15:20.602Z,20.40
2022-12-13T02:17:56.724Z,19.20
2022-12-13T02:20:56.141Z,22.00
2022-12-13T02:23:47.662Z,19.40
2022-12-13T02:26:28.131Z,20.20
2022-12-13T02:29:30.095Z,20.30
2022-12-13T02:32:21.160Z,17.90
2022-12-13T02:34:58.360Z,15.80
2022-12-13T02:37:46.041Z,19.20
2022-12-13T02:40:23.672Z,16.10
2022-12-13T02:42:51.573Z,16.60
2022-12-13T02:45:51.271Z,17.20
2022-12-13T02:48:26.373Z,18.20
2022-12-13T02:53:24.635Z,17.10
2022-12-13T02:55:53.129Z,18.80
2022-12-13T02:58:40.904Z,19.40
2022-12-13T03:01:28.415Z,18.80
2022-12-13T03:04:03.695Z,19.30
2022-12-13T03:07:07.324Z,20.80
2022-12-13T03:09:38.728Z,22.30
2022-12-13T03:12:55.309Z,20.90
2022-12-13T03:15:34.622Z,21.70
2022-12-13T03:18:20.263Z,21.50
2022-12-13T03:20:51.192Z,20.90
2022-12-13T03:23:21.166Z,18.60
2022-12-13T03:25:52.555Z,16.00
2022-12-13T03:28:21.147Z,18.70
2022-12-13T03:30:49.455Z,21.10
2022-12-13T03:33:17.964Z,20.80
2022-12-13T03:35:46.622Z,19.80
2022-12-13T03:38:21.324Z,23.70
2022-12-13T03:40:57.590Z,19.00
2022-12-13T03:43:26.598Z,20.30
2022-12-13T03:45:55.357Z,17.30
2022-12-13T03:48:24.437Z,19.10
2022-12-13T03:50:53.960Z,20.80
2022-12-13T03:53:33.100Z,20.20
2022-12-13T03:56:05.367Z,14.20
2022-12-13T03:58:37.598Z,23.60
2022-12-13T04:01:08.320Z,21.80
2022-12-13T04:03:38.253Z,18.90
2022-12-13T04:06:07.361Z,22.70
2022-12-13T04:08:36.080Z,18.90
2022-12-13T04:11:24.935Z,19.70
2022-12-13T04:13:54.907Z,20.90
2022-12-13T04:16:23.670Z,21.00
2022-12-13T04:18:51.881Z,18.80
2022-12-13T04:21:19.898Z,23.20
2022-12-13T04:23:48.183Z,24.60
2022-12-13T04:26:16.319Z,26.50
2022-12-13T04:28:47.053Z,22.60
2022-12-13T04:31:19.072Z,19.10
2022-12-13T04:33:47.482Z,21.10
2022-12-13T04:36:30.993Z,24.10
2022-12-13T04:39:22.487Z,19.30
2022-12-13T04:41:52.711Z,23.10
2022-12-13T04:44:29.126Z,19.60
2022-12-13T04:47:01.220Z,24.70
2022-12-13T04:49:30.770Z,22.20
2022-12-13T04:52:01.318Z,24.20
2022-12-13T04:54:35.776Z,22.90
2022-12-13T04:57:11.384Z,21.50
2022-12-13T04:59:40.286Z,23.60
2022-12-13T05:02:09.180Z,26.30
2022-12-13T05:04:37.309Z,21.90
2022-12-13T05:07:05.488Z,25.70
2022-12-13T05:09:33.533Z,22.80
2022-12-13T05:12:02.248Z,24.80
2022-12-13T05:14:31.758Z,24.40
2022-12-13T05:17:03.038Z,27.50
2022-12-13T05:19:31.847Z,26.50
2022-12-13T05:22:01.843Z,29.70
2022-12-13T05:24:33.336Z,27.60
2022-12-13T05:27:01.965Z,25.90
2022-12-13T05:29:50.181Z,26.90
2022-12-13T05:32:18.288Z,22.60
2022-12-13T05:34:46.803Z,24.60
2022-12-13T05:37:15.103Z,18.10
2022-12-13T05:39:43.423Z,23.20
2022-12-13T05:42:11.677Z,21.00
2022-12-13T05:44:39.831Z,22.50
2022-12-13T05:47:07.922Z,24.50
2022-12-13T05:49:36.089Z,30.70
2022-12-13T05:52:19.446Z,24.20
2022-12-13T05:54:47.939Z,24.50
2022-12-13T05:57:16.774Z,25.30
2022-12-13T05:59:45.365Z,25.70
2022-12-13T06:02:19.735Z,29.50
2022-12-13T06:04:49.571Z,21.90
2022-12-13T06:07:17.731Z,26.90
2022-12-13T06:09:46.092Z,26.00
2022-12-13T06:12:31.521Z,22.40
2022-12-13T06:15:01.809Z,20.60
2022-12-13T06:17:35.490Z,26.40
2022-12-13T06:20:23.354Z,39.50
2022-12-13T06:22:53.980Z,27.80
2022-12-13T06:25:30.510Z,22.20
2022-12-13T06:28:00.749Z,22.20
2022-12-13T06:30:30.922Z,27.70
2022-12-13T06:32:59.576Z,33.90
2022-12-13T06:35:30.147Z,27.40
2022-12-13T06:38:01.649Z,24.10
2022-12-13T06:40:30.738Z,23.10
2022-12-13T06:42:59.316Z,27.70
2022-12-13T06:45:28.197Z,24.30
2022-12-13T06:47:57.050Z,23.10
2022-12-13T06:50:25.723Z,18.00
2022-12-13T06:52:53.810Z,24.50
2022-12-13T06:55:23.601Z,26.60
2022-12-13T06:57:52.788Z,22.80
2022-12-13T07:00:21.727Z,24.40
2022-12-13T07:02:55.747Z,24.00
2022-12-13T07:05:25.265Z,27.00
2022-12-13T07:07:54.684Z,29.40
2022-12-13T07:10:23.144Z,28.60
2022-12-13T07:12:51.474Z,25.60
2022-12-13T07:15:19.597Z,23.70
2022-12-13T07:17:51.946Z,28.40
2022-12-13T07:20:20.344Z,27.80
2022-12-13T07:22:58.254Z,27.80
2022-12-13T07:25:29.462Z,25.60
2022-12-13T07:28:06.006Z,27.60
2022-12-13T07:30:41.386Z,28.70
2022-12-13T07:33:10.694Z,36.20
2022-12-13T07:35:39.413Z,29.30
2022-12-13T07:38:09.087Z,27.90
2022-12-13T07:40:40.508Z,24.40
2022-12-13T07:43:09.861Z,31.10
2022-12-13T07:45:39.185Z,31.40
2022-12-13T07:48:08.761Z,26.80
2022-12-13T07:50:37.991Z,30.80
2022-12-13T07:53:08.644Z,23.70
2022-12-13T07:55:38.479Z,38.20
2022-12-13T07:58:12.574Z,30.20
2022-12-13T08:00:46.497Z,35.70
2022-12-13T08:03:24.708Z,37.00
2022-12-13T08:06:03.050Z,39.30
2022-12-13T08:08:32.269Z,45.10
2022-12-13T08:11:05.260Z,48.60
2022-12-13T08:13:34.373Z,41.80
2022-12-13T08:16:25.793Z,28.80
2022-12-13T08:19:01.825Z,35.60
2022-12-13T08:21:53.883Z,33.50
2022-12-13T08:24:24.892Z,40.10
2022-12-13T08:27:03.292Z,42.50
2022-12-13T08:29:35.791Z,26.80
2022-12-13T08:32:07.084Z,29.30
2022-12-13T08:34:35.780Z,34.00
2022-12-13T08:37:05.122Z,25.60
2022-12-13T08:39:36.402Z,32.30
2022-12-13T08:42:20.152Z,29.00
2022-12-13T08:44:51.027Z,19.00
2022-12-13T08:47:26.774Z,12.80
2022-12-13T08:50:02.043Z,9.10
2022-12-13T08:52:40.082Z,18.50
2022-12-13T08:55:12.635Z,28.80
2022-12-13T08:57:42.449Z,25.10
2022-12-13T09:00:14.948Z,20.20
2022-12-13T09:02:43.802Z,17.20
2022-12-13T09:05:13.335Z,19.70
2022-12-13T09:08:23.568Z,18.90
2022-12-13T09:11:11.170Z,18.70
2022-12-13T09:13:51.426Z,20.90
2022-12-13T09:16:24.856Z,22.50
2022-12-13T09:18:55.303Z,18.60
2022-12-13T09:21:31.477Z,22.00
2022-12-13T09:24:01.976Z,25.20
2022-12-13T09:26:38.091Z,21.30
2022-12-13T09:29:10.667Z,25.10
2022-12-13T09:31:41.214Z,24.90
2022-12-13T09:34:11.790Z,18.50
2022-12-13T09:36:40.950Z,19.40
2022-12-13T09:39:12.364Z,22.10
2022-12-13T09:41:51.231Z,20.90
2022-12-13T09:44:32.153Z,21.50
2022-12-13T09:47:13.684Z,21.20
2022-12-13T09:49:53.033Z,20.30
2022-12-13T09:52:25.105Z,26.00
2022-12-13T09:54:57.113Z,17.90
2022-12-13T09:57:31.577Z,22.10
2022-12-13T10:00:08.690Z,14.00
2022-12-13T10:02:44.550Z,26.70
2022-12-13T10:05:22.166Z,20.70
2022-12-13T10:07:55.956Z,21.80
2022-12-13T10:10:26.298Z,27.00
2022-12-13T10:13:09.028Z,24.90
2022-12-13T10:15:41.875Z,19.00
2022-12-13T10:18:15.724Z,24.80
2022-12-13T10:20:44.623Z,20.50
2022-12-13T10:23:35.642Z,16.90
2022-12-13T10:26:03.861Z,24.20
2022-12-13T10:28:34.060Z,22.70
2022-12-13T10:31:03.652Z,26.60
2022-12-13T10:33:49.036Z,19.50
2022-12-13T10:36:33.211Z,16.40
2022-12-13T10:39:03.275Z,20.50
2022-12-13T10:41:39.197Z,17.40
2022-12-13T10:44:13.466Z,18.50
2022-12-13T10:46:51.563Z,20.60
2022-12-13T10:49:24.318Z,21.70
2022-12-13T10:51:54.444Z,16.90
2022-12-13T10:54:38.918Z,18.70
2022-12-13T10:57:18.919Z,22.20
2022-12-13T10:59:49.547Z,15.70
2022-12-13T11:02:32.074Z,18.20
2022-12-13T11:05:23.061Z,11.70
2022-12-13T11:07:52.504Z,20.60
2022-12-13T11:10:27.999Z,17.80
2022-12-13T11:13:03.888Z,24.30
2022-12-13T11:15:35.231Z,24.60
2022-12-13T11:18:19.272Z,14.90
2022-12-13T11:21:03.405Z,17.10
2022-12-13T11:23:40.310Z,21.50
2022-12-13T11:26:15.994Z,15.40
2022-12-13T11:29:05.266Z,13.70
2022-12-13T11:31:59.035Z,19.80
2022-12-13T11:34:35.715Z,14.90
2022-12-13T11:37:28.952Z,15.50
2022-12-13T11:40:17.615Z,18.20
2022-12-13T11:42:56.363Z,16.60
2022-12-13T11:45:39.333Z,13.40
2022-12-13T11:48:22.613Z,17.10
2022-12-13T11:50:55.383Z,16.80
2022-12-13T11:53:34.653Z,16.70
2022-12-13T11:56:13.223Z,14.80
2022-12-13T11:59:04.264Z,14.30
2022-12-13T12:01:43.519Z,16.70
2022-12-13T12:04:30.144Z,12.40
2022-12-13T12:07:32.507Z,13.20
2022-12-13T12:10:18.781Z,13.60
2022-12-13T12:12:53.877Z,17.00
2022-12-13T12:16:08.573Z,13.10
2022-12-13T12:18:37.153Z,16.00
2022-12-13T12:22:04.827Z,13.60
2022-12-13T12:24:39.496Z,15.70
2022-12-13T12:27:32.149Z,14.30
2022-12-13T12:30:07.605Z,12.60
2022-12-13T12:32:50.467Z,15.10
2022-12-13T12:35:29.863Z,17.80
2022-12-13T12:38:16.759Z,16.30
2022-12-13T12:41:15.622Z,16.40
2022-12-13T12:43:43.863Z,18.60
2022-12-13T12:47:08.718Z,17.10
2022-12-13T12:49:54.189Z,15.00
2022-12-13T12:53:03.194Z,13.90
2022-12-13T12:55:53.893Z,17.90
2022-12-13T12:58:31.347Z,14.60
2022-12-13T13:01:43.644Z,14.00
2022-12-13T13:04:22.319Z,16.30
2022-12-13T13:07:01.349Z,14.60
2022-12-13T13:09:31.915Z,17.60
2022-12-13T13:12:29.087Z,16.60
2022-12-13T13:14:54.046Z,14.00
2022-12-13T13:17:22.492Z,10.90
2022-12-13T13:20:07.892Z,15.10
2022-12-13T13:22:43.516Z,12.10
2022-12-13T13:25:26.328Z,13.20
2022-12-13T13:28:16.741Z,12.80
2022-12-13T13:31:09.267Z,12.90
2022-12-13T13:33:58.146Z,15.60
2022-12-13T13:36:53.200Z,15.20
2022-12-13T13:39:57.683Z,16.20
2022-12-13T13:42:30.209Z,14.50
2022-12-13T13:45:26.513Z,16.70
2022-12-13T13:48:14.976Z,13.40
2022-12-13T13:51:11.768Z,13.30
2022-12-13T13:54:18.564Z,15.50
2022-12-13T13:57:20.239Z,13.50
2022-12-13T14:02:58.995Z,18.00
2022-12-13T14:05:52.988Z,12.80
2022-12-13T14:09:08.845Z,17.60
2022-12-13T14:11:47.284Z,12.60
2022-12-13T14:14:41.066Z,21.10
2022-12-13T14:17:47.295Z,13.20
2022-12-13T14:20:37.980Z,11.70
2022-12-13T14:23:34.301Z,13.10
2022-12-13T14:28:50.777Z,11.50
2022-12-13T14:31:30.815Z,21.30
2022-12-13T14:34:00.758Z,12.80
2022-12-13T14:36:35.848Z,15.60
2022-12-13T14:39:24.795Z,18.10
2022-12-13T14:41:57.357Z,15.30
2022-12-13T14:44:36.765Z,16.80
2022-12-13T14:47:07.676Z,18.20
2022-12-13T14:49:48.862Z,14.10
2022-12-13T14:52:33.885Z,12.30
2022-12-13T14:55:06.046Z,15.70
2022-12-13T14:57:35.596Z,13.30
2022-12-13T15:00:27.070Z,20.20
2022-12-13T15:02:58.554Z,16.70
2022-12-13T15:05:32.913Z,18.50
2022-12-13T15:08:10.900Z,15.20
2022-12-13T15:10:48.429Z,20.00
2022-12-13T15:13:48.520Z,19.60
2022-12-13T15:16:28.337Z,14.60
2022-12-13T15:19:29.432Z,15.90
2022-12-13T15:22:08.889Z,15.80
2022-12-13T15:24:48.851Z,18.40
2022-12-13T15:27:30.722Z,18.00
2022-12-13T15:29:59.289Z,16.40
2022-12-13T15:32:28.936Z,17.20
2022-12-13T15:34:58.503Z,24.30
2022-12-13T15:37:32.057Z,21.20
2022-12-13T15:40:07.631Z,21.60
2022-12-13T15:42:39.682Z,22.60
2022-12-13T15:45:20.592Z,23.40
2022-12-13T15:47:50.237Z,20.50
2022-12-13T15:50:45.425Z,15.80
2022-12-13T15:53:29.353Z,20.30
2022-12-13T15:55:59.654Z,16.80
2022-12-13T15:58:35.441Z,17.50
2022-12-13T16:01:07.722Z,16.80
2022-12-13T16:03:43.580Z,13.20
2022-12-13T16:06:19.079Z,17.60
2022-12-13T16:08:51.554Z,18.80
2022-12-13T16:11:48.058Z,16.50
2022-12-13T16:14:32.213Z,16.80
2022-12-13T16:17:20.055Z,18.60
2022-12-13T16:19:49.172Z,23.20
2022-12-13T16:22:21.790Z,15.70
2022-12-13T16:24:52.580Z,17.10
2022-12-13T16:27:21.846Z,17.10
2022-12-13T16:29:50.488Z,19.80
2022-12-13T16:32:19.906Z,18.30
2022-12-13T16:34:48.514Z,14.80
2022-12-13T16:37:25.424Z,19.90
2022-12-13T16:39:55.963Z,19.20
2022-12-13T16:42:27.276Z,23.00
2022-12-13T16:45:32.280Z,24.20
2022-12-13T16:47:49.736Z,21.20
2022-12-13T16:50:21.134Z,22.30
2022-12-13T16:52:49.970Z,21.30
2022-12-13T16:55:19.282Z,20.90
2022-12-13T16:58:02.706Z,13.00
2022-12-13T17:00:31.928Z,22.00
2022-12-13T17:03:00.823Z,20.20
2022-12-13T17:05:31.446Z,23.80
2022-12-13T17:08:01.824Z,18.60
2022-12-13T17:10:31.383Z,20.00
2022-12-13T17:13:00.444Z,20.00
2022-12-13T17:15:30.361Z,18.40
2022-12-13T17:17:58.879Z,21.40
2022-12-13T17:20:27.613Z,23.10
2022-12-13T17:22:56.192Z,16.70
2022-12-13T17:25:24.722Z,20.90
2022-12-13T17:27:53.473Z,23.50
2022-12-13T17:30:21.767Z,19.90
2022-12-13T17:32:50.423Z,22.00
2022-12-13T17:35:19.606Z,16.10
2022-12-13T17:37:48.167Z,21.30
2022-12-13T17:40:17.964Z,30.70
2022-12-13T17:42:49.654Z,23.90
2022-12-13T17:45:19.714Z,26.30
2022-12-13T17:47:47.995Z,26.20
2022-12-13T17:50:16.473Z,27.60
2022-12-13T17:52:44.735Z,23.30
2022-12-13T17:55:18.167Z,24.70
2022-12-13T17:57:47.154Z,25.00
2022-12-13T18:00:16.364Z,17.50
2022-12-13T18:02:55.456Z,30.90
2022-12-13T18:05:26.472Z,35.30
2022-12-13T18:07:54.876Z,39.40
2022-12-13T18:10:29.507Z,38.50
2022-12-13T18:12:59.049Z,37.30
2022-12-13T18:15:27.706Z,36.20
2022-12-13T18:18:11.410Z,35.30
2022-12-13T18:20:40.153Z,38.40
2022-12-13T18:23:08.583Z,29.50
2022-12-13T18:25:37.436Z,36.20
2022-12-13T18:28:09.452Z,30.40
2022-12-13T18:30:38.854Z,34.30
2022-12-13T18:33:07.804Z,33.60
2022-12-13T18:35:36.640Z,35.00
2022-12-13T18:38:05.283Z,32.20
2022-12-13T18:40:33.589Z,38.30
2022-12-13T18:43:02.254Z,33.20
2022-12-13T18:45:30.736Z,29.10
2022-12-13T18:47:59.807Z,27.30
2022-12-13T18:50:28.156Z,34.10
2022-12-13T18:52:57.409Z,40.80
2022-12-13T18:55:25.985Z,34.80
2022-12-13T18:57:54.476Z,34.10
2022-12-13T19:00:24.352Z,31.20
2022-12-13T19:02:52.731Z,31.80
2022-12-13T19:05:23.111Z,32.20
2022-12-13T19:07:51.371Z,40.40
2022-12-13T19:10:19.844Z,38.20
2022-12-13T19:12:48.248Z,39.00
2022-12-13T19:15:17.195Z,43.90
2022-12-13T19:17:46.812Z,40.70
2022-12-13T19:20:15.951Z,31.50
2022-12-13T19:22:44.513Z,37.30
2022-12-13T19:25:13.733Z,36.80
2022-12-13T19:27:44.920Z,40.40
2022-12-13T19:30:13.359Z,42.10
2022-12-13T19:32:42.525Z,38.90
2022-12-13T19:35:16.817Z,40.80
2022-12-13T19:37:45.194Z,48.60
2022-12-13T19:40:13.836Z,31.30
2022-12-13T19:42:42.423Z,38.10
2022-12-13T19:45:11.319Z,41.10
2022-12-13T19:47:40.308Z,37.40
2022-12-13T19:50:08.980Z,35.10
2022-12-13T19:52:39.029Z,42.80
2022-12-13T19:55:07.561Z,37.40
2022-12-13T19:57:36.004Z,39.90
2022-12-13T20:00:05.596Z,38.10
2022-12-13T20:02:34.082Z,30.60
2022-12-13T20:05:02.452Z,31.00
2022-12-13T20:07:30.647Z,35.30
2022-12-13T20:09:59.537Z,37.90
2022-12-13T20:12:30.021Z,33.60
2022-12-13T20:15:02.826Z,31.40
2022-12-13T20:17:31.762Z,36.00
2022-12-13T20:20:00.381Z,28.10
2022-12-13T20:22:28.821Z,35.40
2022-12-13T20:24:57.303Z,34.60
2022-12-13T20:27:27.147Z,31.80
2022-12-13T20:29:55.916Z,35.30
2022-12-13T20:32:24.536Z,40.70
2022-12-13T20:34:55.023Z,44.30
2022-12-13T20:37:27.683Z,52.40
2022-12-13T20:39:56.092Z,46.60
2022-12-13T20:42:24.737Z,35.80
2022-12-13T20:44:53.200Z,38.90
2022-12-13T20:47:21.875Z,41.60
2022-12-13T20:49:50.597Z,43.70
2022-12-13T20:52:19.304Z,32.60
2022-12-13T20:54:47.778Z,35.40
2022-12-13T20:57:16.029Z,36.70
2022-12-13T20:59:45.272Z,33.20
2022-12-13T21:02:14.329Z,41.80
2022-12-13T21:04:43.215Z,41.40
2022-12-13T21:07:12.355Z,40.20
2022-12-13T21:09:41.706Z,34.70
2022-12-13T21:12:11.003Z,35.80
2022-12-13T21:14:39.711Z,41.30
2022-12-13T21:17:10.026Z,40.50
2022-12-13T21:19:40.429Z,36.70
2022-12-13T21:22:08.938Z,42.80
2022-12-13T21:24:37.238Z,40.30
2022-12-13T21:27:06.850Z,43.00
2022-12-13T21:29:35.650Z,42.80
2022-12-13T21:32:04.928Z,49.60
2022-12-13T21:34:33.284Z,50.40
2022-12-13T21:37:01.678Z,51.30
2022-12-13T21:39:29.968Z,42.40
2022-12-13T21:41:58.769Z,41.90
2022-12-13T21:44:28.917Z,43.10
2022-12-13T21:47:15.100Z,44.20
2022-12-13T21:49:48.634Z,37.40
2022-12-13T21:52:17.879Z,36.10
2022-12-13T21:54:46.268Z,33.80
2022-12-13T21:57:32.756Z,33.30
2022-12-13T22:00:01.165Z,42.40
2022-12-13T22:02:29.954Z,37.60
2022-12-13T22:04:59.092Z,27.90
2022-12-13T22:07:33.248Z,37.60
2022-12-13T22:10:02.374Z,29.00
2022-12-13T22:12:34.989Z,35.50
2022-12-13T22:15:05.785Z,29.70
2022-12-13T22:17:35.986Z,41.60
2022-12-13T22:20:06.657Z,42.90
2022-12-13T22:22:35.080Z,34.00
2022-12-13T22:25:03.920Z,31.50
2022-12-13T22:27:32.164Z,35.50
2022-12-13T22:30:00.431Z,43.10
2022-12-13T22:32:31.318Z,43.10
2022-12-13T22:34:59.515Z,41.70
2022-12-13T22:37:27.687Z,40.90
2022-12-13T22:39:55.657Z,44.20
2022-12-13T22:42:24.227Z,44.40
2022-12-13T22:44:52.389Z,40.20
2022-12-13T22:47:20.563Z,42.50
2022-12-13T22:49:49.256Z,35.70
2022-12-13T22:52:17.780Z,45.20
2022-12-13T22:54:45.863Z,39.50
2022-12-13T22:57:14.273Z,36.40
2022-12-13T22:59:42.629Z,33.60
2022-12-13T23:02:11.598Z,46.50
2022-12-13T23:04:39.889Z,47.60
2022-12-13T23:07:08.000Z,47.20
2022-12-13T23:09:36.421Z,46.10
2022-12-13T23:12:37.253Z,40.80
2022-12-13T23:15:06.242Z,39.50
2022-12-13T23:17:34.279Z,37.90
2022-12-13T23:20:04.642Z,39.80
2022-12-13T23:22:32.749Z,37.30
2022-12-13T23:25:00.894Z,42.40
2022-12-13T23:27:29.071Z,36.80
2022-12-13T23:29:57.286Z,39.60
2022-12-13T23:32:25.503Z,41.10
2022-12-13T23:34:53.604Z,41.30
2022-12-13T23:37:22.315Z,43.20
2022-12-13T23:39:50.374Z,43.00
2022-12-13T23:42:18.647Z,40.90
2022-12-13T23:44:46.796Z,40.90
2022-12-13T23:47:14.792Z,45.60
2022-12-13T23:49:42.878Z,41.10
2022-12-13T23:52:11.115Z,41.40
2022-12-13T23:54:39.247Z,40.00
2022-12-13T23:57:07.765Z,38.60
2022-12-13T23:59:36.207Z,40.20
